Time;durP1;ratioP1;P1;durP2;ratioP2;P2;SDS_P1;SDS_P2;PMS_P1;PMS_P2;Temp;Humidity;BMP_temperature;BMP_pressure;BME280_temperature;BME280_humidity;BME280_pressure;Samples;Min_cycle;Max_cycle;Signal;HPM_P1;HPM_P2
2021/06/13 00:01:26;;;;;;;8.70;7.90;;;16.10;71.90;;;;;;5130176;28;20436;-81
2021/06/13 00:03:56;;;;;;;7.90;7.20;;;16.20;70.90;;;;;;5136212;28;20444;-83
2021/06/13 00:06:24;;;;;;;8.00;6.87;;;16.20;69.80;;;;;;5137426;28;20439;-82
2021/06/13 00:08:51;;;;;;;10.23;6.90;;;16.20;69.50;;;;;;5127213;28;20524;-81
2021/06/13 00:11:21;;;;;;;8.03;7.10;;;16.20;68.80;;;;;;5126473;28;20430;-81
2021/06/13 00:13:50;;;;;;;6.60;6.00;;;16.20;68.50;;;;;;5125301;28;20434;-81
2021/06/13 00:16:16;;;;;;;8.17;5.90;;;16.10;68.50;;;;;;5125548;28;20466;-81
2021/06/13 00:18:43;;;;;;;7.37;5.30;;;16.00;67.40;;;;;;5125784;28;20440;-82
2021/06/13 00:21:12;;;;;;;7.33;4.53;;;15.90;67.10;;;;;;5126805;28;20499;-81
2021/06/13 00:23:40;;;;;;;5.93;3.60;;;15.90;66.60;;;;;;5127354;28;20514;-81
2021/06/13 00:26:06;;;;;;;5.23;4.47;;;15.80;66.50;;;;;;5125128;28;20429;-81
2021/06/13 00:28:33;;;;;;;5.53;4.30;;;15.70;66.30;;;;;;5125431;28;20488;-81
2021/06/13 00:30:59;;;;;;;5.87;4.40;;;15.60;66.40;;;;;;5124821;28;20435;-81
2021/06/13 00:33:27;;;;;;;8.10;4.10;;;15.60;66.20;;;;;;5126948;28;20445;-81
2021/06/13 00:35:53;;;;;;;6.20;3.97;;;15.60;66.10;;;;;;5126988;28;20450;-81
2021/06/13 00:38:21;;;;;;;11.30;4.00;;;15.50;66.30;;;;;;5126327;28;20465;-82
2021/06/13 00:40:47;;;;;;;4.97;4.47;;;15.50;66.50;;;;;;5127817;28;20435;-80
2021/06/13 00:43:14;;;;;;;7.43;4.80;;;15.40;66.70;;;;;;5129588;28;20463;-81
2021/06/13 00:45:40;;;;;;;5.83;4.67;;;15.30;66.80;;;;;;5131820;27;20448;-81
2021/06/13 00:48:07;;;;;;;6.33;4.90;;;15.30;67.00;;;;;;5130392;28;20511;-81
2021/06/13 00:50:40;;;;;;;5.43;4.43;;;15.20;67.00;;;;;;5130959;28;20481;-81
2021/06/13 00:53:07;;;;;;;6.63;4.67;;;15.20;66.90;;;;;;5131271;28;20444;-80
2021/06/13 00:55:36;;;;;;;6.27;4.37;;;15.20;67.20;;;;;;5128571;28;20467;-81
2021/06/13 00:58:03;;;;;;;4.77;4.30;;;15.10;67.40;;;;;;5136710;28;20526;-81
2021/06/13 01:00:30;;;;;;;5.43;4.90;;;15.10;67.60;;;;;;5139054;28;20420;-80
2021/06/13 01:02:57;;;;;;;6.40;4.17;;;15.00;67.60;;;;;;5140365;28;20443;-80
2021/06/13 01:05:24;;;;;;;5.40;4.47;;;15.00;67.70;;;;;;5141241;28;20447;-80
2021/06/13 01:08:02;;;;;;;6.37;4.40;;;15.00;67.90;;;;;;5141079;28;20439;-80
2021/06/13 01:10:42;;;;;;;4.30;3.90;;;14.90;68.00;;;;;;5141273;28;20440;-80
2021/06/13 01:13:15;;;;;;;6.30;4.73;;;14.90;68.30;;;;;;5135130;28;20776;-80
2021/06/13 01:15:47;;;;;;;5.73;4.50;;;14.80;68.50;;;;;;5126857;28;20917;-80
2021/06/13 01:18:22;;;;;;;8.90;4.30;;;14.70;68.70;;;;;;5125801;28;20456;-80
2021/06/13 01:20:55;;;;;;;5.43;4.70;;;14.60;68.90;;;;;;5127654;28;20770;-80
2021/06/13 01:23:51;;;;;;;6.70;4.60;;;14.60;68.80;;;;;;5126805;28;20482;-80
2021/06/13 01:26:50;;;;;;;5.20;4.50;;;14.60;68.90;;;;;;5126598;28;20443;-80
2021/06/13 01:29:22;;;;;;;8.80;4.33;;;14.50;69.50;;;;;;5127459;28;20443;-80
2021/06/13 01:31:54;;;;;;;6.00;4.30;;;14.50;69.50;;;;;;5126821;28;20443;-79
2021/06/13 01:34:24;;;;;;;5.07;3.63;;;14.40;69.10;;;;;;5133762;28;20434;-80
2021/06/13 01:36:52;;;;;;;7.13;4.10;;;14.40;68.10;;;;;;5133820;28;20470;-80
2021/06/13 01:39:23;;;;;;;5.73;3.43;;;14.40;68.10;;;;;;5134329;28;20469;-80
2021/06/13 01:41:52;;;;;;;5.87;3.90;;;14.40;68.10;;;;;;5131698;28;20449;-80
2021/06/13 01:44:21;;;;;;;5.07;3.57;;;14.40;67.90;;;;;;5125804;28;20506;-79
2021/06/13 01:46:50;;;;;;;4.30;3.60;;;14.40;68.10;;;;;;5126741;28;20435;-80
2021/06/13 01:49:19;;;;;;;4.97;3.73;;;14.30;68.10;;;;;;5126942;28;20888;-79
2021/06/13 01:51:45;;;;;;;4.30;3.90;;;14.20;68.00;;;;;;5128625;27;20435;-80
2021/06/13 01:54:12;;;;;;;6.70;4.13;;;14.20;67.70;;;;;;5129212;28;20875;-80
2021/06/13 01:56:44;;;;;;;5.87;3.60;;;14.30;67.90;;;;;;5130007;28;20493;-81
2021/06/13 01:59:12;;;;;;;6.50;4.20;;;14.20;67.70;;;;;;5129300;28;20426;-80
2021/06/13 02:01:42;;;;;;;4.30;3.87;;;14.20;68.20;;;;;;5130267;28;20447;-80
2021/06/13 02:04:10;;;;;;;5.33;4.30;;;14.10;68.00;;;;;;5129964;27;20458;-80
2021/06/13 02:06:42;;;;;;;3.70;3.37;;;14.10;68.20;;;;;;5131129;28;20435;-80
2021/06/13 02:09:09;;;;;;;5.60;3.30;;;14.10;68.00;;;;;;5134324;28;20508;-78
2021/06/13 02:11:41;;;;;;;11.43;4.10;;;14.00;68.30;;;;;;5134939;28;20472;-79
2021/06/13 02:14:09;;;;;;;6.20;4.10;;;14.00;68.50;;;;;;5133619;27;20469;-80
2021/06/13 02:16:37;;;;;;;8.87;4.33;;;13.90;68.40;;;;;;5126768;28;20468;-79
2021/06/13 02:19:05;;;;;;;6.27;4.60;;;13.80;68.70;;;;;;5126776;28;20498;-78
2021/06/13 02:21:32;;;;;;;5.80;3.87;;;13.80;68.80;;;;;;5125179;28;20503;-78
2021/06/13 02:23:59;;;;;;;6.80;3.73;;;13.70;68.90;;;;;;5121964;28;20439;-78
2021/06/13 02:26:27;;;;;;;8.90;4.20;;;13.60;69.40;;;;;;5119294;28;20537;-78
2021/06/13 02:28:56;;;;;;;5.70;4.10;;;13.50;69.90;;;;;;5118259;28;20441;-78
2021/06/13 02:31:26;;;;;;;4.73;3.80;;;13.40;70.20;;;;;;5119451;28;20546;-78
2021/06/13 02:33:53;;;;;;;6.03;4.53;;;13.40;70.70;;;;;;5119206;28;20511;-78
2021/06/13 02:36:22;;;;;;;4.97;3.90;;;13.40;70.80;;;;;;5118378;28;20474;-78
2021/06/13 02:38:50;;;;;;;6.37;4.00;;;13.30;71.60;;;;;;5120234;28;20502;-78
2021/06/13 02:41:17;;;;;;;6.17;4.47;;;13.20;72.10;;;;;;5120691;28;20579;-78
2021/06/13 02:43:44;;;;;;;4.73;4.33;;;13.20;73.20;;;;;;5119990;28;20782;-78
2021/06/13 02:46:10;;;;;;;5.50;4.90;;;13.20;73.60;;;;;;5119571;28;21025;-77
2021/06/13 02:48:37;;;;;;;5.73;4.27;;;13.20;73.50;;;;;;5120173;28;20511;-78
2021/06/13 02:51:03;;;;;;;8.20;4.77;;;13.20;73.10;;;;;;5123701;28;20530;-78
2021/06/13 02:53:42;;;;;;;5.90;4.20;;;13.20;73.30;;;;;;5122105;28;20588;-79
2021/06/13 02:56:13;;;;;;;6.53;4.60;;;13.10;73.00;;;;;;5121345;28;20526;-78
2021/06/13 02:58:43;;;;;;;6.33;4.87;;;13.10;73.30;;;;;;5120546;28;20497;-77
2021/06/13 03:01:12;;;;;;;5.47;4.43;;;13.10;72.80;;;;;;5119745;28;20559;-78
2021/06/13 03:03:42;;;;;;;4.50;3.80;;;13.00;72.30;;;;;;5118500;28;20532;-78
2021/06/13 03:06:12;;;;;;;5.17;3.80;;;13.00;72.10;;;;;;5117733;28;20495;-78
2021/06/13 03:08:40;;;;;;;4.50;3.93;;;12.90;72.20;;;;;;5118286;28;20442;-78
2021/06/13 03:11:07;;;;;;;4.80;3.90;;;12.90;72.20;;;;;;5117216;28;20772;-77
2021/06/13 03:13:34;;;;;;;3.93;3.63;;;12.80;72.80;;;;;;5118077;28;20438;-77
2021/06/13 03:16:01;;;;;;;5.17;4.13;;;12.80;73.10;;;;;;5123466;28;20442;-77
2021/06/13 03:18:29;;;;;;;7.00;4.80;;;12.70;73.40;;;;;;5125916;28;20489;-76
2021/06/13 03:20:56;;;;;;;4.83;3.73;;;12.70;73.20;;;;;;5124925;28;20477;-78
2021/06/13 03:23:25;;;;;;;5.43;3.90;;;12.70;72.80;;;;;;5122112;28;20442;-78
2021/06/13 03:25:54;;;;;;;5.83;4.27;;;12.70;72.60;;;;;;5120594;28;20437;-77
2021/06/13 03:28:21;;;;;;;5.80;3.90;;;12.70;72.50;;;;;;5121315;28;20573;-78
2021/06/13 03:30:48;;;;;;;5.03;3.40;;;12.70;72.60;;;;;;5121982;28;20933;-78
2021/06/13 03:33:16;;;;;;;5.13;4.20;;;12.70;72.90;;;;;;5123051;28;20545;-78
2021/06/13 03:35:44;;;;;;;5.63;4.30;;;12.70;72.80;;;;;;5123338;28;20433;-78
2021/06/13 03:38:11;;;;;;;4.73;4.20;;;12.70;72.60;;;;;;5125770;28;20929;-78
2021/06/13 03:40:39;;;;;;;6.53;4.00;;;12.70;72.70;;;;;;5122682;28;20488;-78
2021/06/13 03:43:08;;;;;;;4.60;4.10;;;12.70;72.50;;;;;;5120089;28;20485;-78
2021/06/13 03:45:35;;;;;;;5.37;4.17;;;12.70;72.20;;;;;;5122163;28;20482;-78
2021/06/13 03:48:03;;;;;;;7.13;4.40;;;12.80;72.90;;;;;;5123963;28;20441;-78
2021/06/13 03:50:31;;;;;;;5.20;4.00;;;12.80;72.60;;;;;;5117614;28;20441;-78
2021/06/13 03:52:59;;;;;;;4.67;4.13;;;12.80;72.40;;;;;;5117282;28;20473;-79
2021/06/13 03:55:26;;;;;;;6.87;4.27;;;12.80;72.70;;;;;;5117465;28;20836;-78
2021/06/13 03:57:54;;;;;;;3.77;3.47;;;12.80;72.60;;;;;;5117464;28;20504;-79
2021/06/13 04:00:25;;;;;;;5.87;4.40;;;12.90;72.40;;;;;;5117592;28;20431;-78
2021/06/13 04:02:52;;;;;;;7.73;4.40;;;12.90;72.40;;;;;;5117257;28;20446;-78
2021/06/13 04:05:20;;;;;;;4.17;3.77;;;13.00;72.30;;;;;;5118195;28;20430;-79
2021/06/13 04:07:47;;;;;;;5.27;3.77;;;13.10;72.50;;;;;;5118483;28;20902;-79
2021/06/13 04:10:15;;;;;;;4.17;3.77;;;13.70;71.90;;;;;;5119698;28;20446;-78
2021/06/13 04:12:45;;;;;;;6.33;3.77;;;14.90;68.80;;;;;;5118075;28;20482;-78
2021/06/13 04:15:12;;;;;;;4.20;3.73;;;15.30;68.10;;;;;;5116230;28;20443;-78
2021/06/13 04:17:41;;;;;;;5.50;3.77;;;16.10;66.60;;;;;;5116791;28;20547;-78
2021/06/13 04:20:11;;;;;;;4.13;3.70;;;16.50;65.50;;;;;;5120155;28;20461;-78
2021/06/13 04:22:40;;;;;;;5.73;3.43;;;16.70;65.10;;;;;;5119875;28;20801;-78
2021/06/13 04:25:09;;;;;;;4.80;3.50;;;16.90;64.90;;;;;;5119427;28;20960;-78
2021/06/13 04:27:38;;;;;;;3.87;3.47;;;17.00;64.50;;;;;;5120952;28;20494;-78
2021/06/13 04:30:07;;;;;;;5.63;4.07;;;17.00;64.30;;;;;;5122493;28;20445;-78
2021/06/13 04:32:34;;;;;;;4.00;3.30;;;17.30;64.20;;;;;;5120254;28;20439;-78
2021/06/13 04:35:03;;;;;;;4.30;3.70;;;17.60;63.70;;;;;;5124948;28;20537;-78
2021/06/13 04:37:30;;;;;;;8.53;4.20;;;17.60;63.90;;;;;;5127749;28;20481;-78
2021/06/13 04:39:57;;;;;;;3.80;3.40;;;17.90;63.90;;;;;;5129582;28;20526;-79
2021/06/13 04:42:24;;;;;;;4.13;3.57;;;18.20;62.70;;;;;;5129430;28;20448;-78
2021/06/13 04:44:51;;;;;;;5.03;3.67;;;17.90;63.00;;;;;;5131400;28;20504;-79
2021/06/13 04:47:17;;;;;;;5.07;3.57;;;17.80;62.70;;;;;;5132318;28;20430;-79
2021/06/13 04:49:45;;;;;;;3.53;3.10;;;17.80;62.30;;;;;;5129077;28;20437;-78
2021/06/13 04:52:15;;;;;;;5.23;3.80;;;18.00;61.80;;;;;;5122826;27;20521;-78
2021/06/13 04:54:53;;;;;;;4.30;3.50;;;18.00;61.80;;;;;;5123947;28;20470;-78
2021/06/13 04:57:49;;;;;;;7.53;3.17;;;18.20;61.40;;;;;;5125702;28;20469;-79
2021/06/13 05:00:16;;;;;;;6.20;3.30;;;18.40;61.30;;;;;;5122910;28;20481;-79
2021/06/13 05:02:45;;;;;;;5.17;3.23;;;18.70;61.00;;;;;;5122927;28;20441;-79
2021/06/13 05:05:12;;;;;;;4.27;3.13;;;18.70;60.60;;;;;;5122986;28;20453;-79
2021/06/13 05:07:41;;;;;;;4.17;2.93;;;18.70;60.10;;;;;;5125427;28;20527;-79
2021/06/13 05:10:10;;;;;;;3.33;3.00;;;18.50;60.50;;;;;;5125297;28;20478;-78
2021/06/13 05:12:48;;;;;;;6.37;2.93;;;18.80;60.50;;;;;;5126208;28;20545;-78
2021/06/13 05:15:16;;;;;;;5.10;3.20;;;18.90;62.30;;;;;;5123385;28;20474;-79
2021/06/13 05:17:43;;;;;;;2.87;2.67;;;18.80;62.40;;;;;;5122815;28;20530;-79
2021/06/13 05:20:11;;;;;;;3.30;2.80;;;18.90;59.70;;;;;;5122186;28;20508;-79
2021/06/13 05:22:54;;;;;;;3.67;2.70;;;19.20;59.50;;;;;;5123217;28;20438;-79
2021/06/13 05:25:22;;;;;;;2.97;2.67;;;19.20;59.00;;;;;;5123056;28;20822;-79
2021/06/13 05:27:49;;;;;;;4.13;3.00;;;19.00;58.90;;;;;;5123896;28;20492;-78
2021/06/13 05:30:16;;;;;;;4.83;3.30;;;19.10;59.00;;;;;;5124729;28;20515;-79
2021/06/13 05:32:43;;;;;;;5.80;3.60;;;19.20;59.10;;;;;;5133732;28;20435;-79
2021/06/13 05:35:11;;;;;;;4.60;3.27;;;19.20;59.00;;;;;;5132845;28;20541;-79
2021/06/13 05:37:37;;;;;;;4.90;3.20;;;19.50;59.10;;;;;;5126001;28;20519;-78
2021/06/13 05:40:08;;;;;;;4.27;2.87;;;19.60;58.90;;;;;;5125339;28;20495;-79
2021/06/13 05:42:35;;;;;;;4.73;2.80;;;20.00;58.40;;;;;;5126160;28;20477;-79
2021/06/13 05:45:04;;;;;;;3.67;2.90;;;20.20;58.20;;;;;;5126462;28;20438;-79
2021/06/13 05:47:31;;;;;;;5.77;3.13;;;20.30;57.80;;;;;;5124460;28;20479;-79
2021/06/13 05:49:58;;;;;;;6.07;3.73;;;20.10;58.30;;;;;;5128570;28;20509;-79
2021/06/13 05:52:25;;;;;;;4.37;3.50;;;20.10;58.60;;;;;;5127219;28;20443;-79
2021/06/13 05:54:57;;;;;;;3.10;2.87;;;19.70;58.10;;;;;;5126888;28;20518;-78
2021/06/13 05:57:30;;;;;;;4.50;2.73;;;19.30;58.40;;;;;;5124583;28;20463;-79
2021/06/13 05:59:57;;;;;;;4.07;2.73;;;19.20;58.40;;;;;;5121787;28;20460;-79
2021/06/13 06:02:24;;;;;;;6.50;3.00;;;19.40;58.50;;;;;;5122915;28;20843;-79
2021/06/13 06:04:50;;;;;;;6.03;3.00;;;19.30;58.00;;;;;;5119771;28;20487;-79
2021/06/13 06:07:17;;;;;;;3.50;3.20;;;19.40;57.80;;;;;;5122121;28;20485;-77
2021/06/13 06:09:44;;;;;;;4.37;2.90;;;18.70;58.00;;;;;;5122078;28;21071;-79
2021/06/13 06:12:12;;;;;;;6.60;2.93;;;18.30;58.50;;;;;;5125198;28;20968;-78
2021/06/13 06:14:40;;;;;;;4.07;2.90;;;18.30;58.80;;;;;;5136026;28;20438;-79
2021/06/13 06:17:08;;;;;;;5.67;2.87;;;18.40;58.40;;;;;;5128248;28;20979;-79
2021/06/13 06:19:34;;;;;;;5.07;2.70;;;18.60;58.70;;;;;;5121905;28;20433;-78
2021/06/13 06:22:01;;;;;;;5.00;2.60;;;18.90;57.90;;;;;;5120012;28;20446;-79
2021/06/13 06:24:28;;;;;;;4.67;3.00;;;19.00;58.40;;;;;;5119287;28;20446;-78
2021/06/13 06:26:55;;;;;;;5.10;3.67;;;19.40;57.50;;;;;;5118299;27;20475;-78
2021/06/13 06:29:22;;;;;;;6.30;3.33;;;19.10;57.60;;;;;;5118978;27;20525;-78
2021/06/13 06:31:50;;;;;;;5.80;3.00;;;18.60;57.40;;;;;;5119895;28;20534;-78
2021/06/13 06:34:17;;;;;;;6.90;3.20;;;18.00;57.00;;;;;;5122222;28;20478;-78
2021/06/13 06:36:45;;;;;;;6.20;3.20;;;17.40;57.70;;;;;;5121504;28;20473;-77
2021/06/13 06:39:12;;;;;;;6.00;3.13;;;17.30;57.50;;;;;;5120169;28;20499;-78
2021/06/13 06:41:40;;;;;;;5.90;3.20;;;17.20;58.30;;;;;;5120034;28;20936;-78
2021/06/13 06:44:07;;;;;;;5.50;2.97;;;17.10;58.30;;;;;;5122307;28;20932;-78
2021/06/13 06:46:34;;;;;;;5.93;3.17;;;17.10;58.40;;;;;;5123781;28;20472;-78
2021/06/13 06:49:03;;;;;;;5.43;3.10;;;17.20;58.30;;;;;;5120545;28;20439;-79
2021/06/13 06:51:30;;;;;;;10.33;3.83;;;17.10;58.70;;;;;;5120704;28;20485;-79
2021/06/13 06:53:58;;;;;;;6.50;3.30;;;17.10;58.40;;;;;;5122899;28;20434;-79
2021/06/13 06:56:25;;;;;;;5.17;3.30;;;17.20;58.70;;;;;;5129338;28;20508;-79
2021/06/13 06:58:52;;;;;;;3.57;3.20;;;17.30;58.30;;;;;;5122931;28;20477;-79
2021/06/13 07:01:20;;;;;;;5.20;2.97;;;17.00;58.30;;;;;;5122735;28;20477;-79
2021/06/13 07:03:46;;;;;;;4.93;3.23;;;16.70;57.60;;;;;;5123493;28;20449;-79
2021/06/13 07:06:15;;;;;;;4.83;3.30;;;16.60;58.00;;;;;;5107463;28;20438;-79
2021/06/13 07:08:42;;;;;;;8.27;3.10;;;16.70;57.90;;;;;;5103685;28;20529;-78
2021/06/13 07:11:09;;;;;;;11.60;3.30;;;17.00;58.00;;;;;;5100788;28;20436;-79
2021/06/13 07:13:36;;;;;;;4.80;2.90;;;17.50;58.00;;;;;;5101702;28;20443;-79
2021/06/13 07:16:04;;;;;;;5.33;3.23;;;17.70;58.00;;;;;;5105106;28;20445;-80
2021/06/13 07:18:31;;;;;;;5.43;3.20;;;17.50;57.90;;;;;;5103703;28;20472;-79
2021/06/13 07:20:58;;;;;;;4.80;3.60;;;17.20;58.40;;;;;;5104094;28;20490;-82
2021/06/13 07:23:26;;;;;;;5.63;3.37;;;17.00;58.20;;;;;;5103019;28;20527;-82
2021/06/13 07:25:53;;;;;;;4.50;3.37;;;17.10;58.30;;;;;;5104618;28;20444;-83
2021/06/13 07:28:20;;;;;;;6.33;3.40;;;17.40;58.30;;;;;;5103577;28;20433;-83
2021/06/13 07:30:47;;;;;;;3.80;3.40;;;17.50;58.00;;;;;;5103496;28;20438;-83
2021/06/13 07:33:14;;;;;;;6.70;3.30;;;17.50;57.40;;;;;;5104779;28;20486;-82
2021/06/13 07:35:42;;;;;;;3.87;3.50;;;17.50;57.10;;;;;;5103695;28;20456;-82
2021/06/13 07:38:09;;;;;;;3.90;3.60;;;17.70;56.80;;;;;;5105436;28;20473;-84
2021/06/13 07:40:45;;;;;;;4.13;2.83;;;17.70;57.10;;;;;;5105846;28;20461;-82
2021/06/13 07:43:14;;;;;;;4.33;3.40;;;17.80;57.10;;;;;;5108197;28;20469;-81
2021/06/13 07:45:42;;;;;;;5.73;3.53;;;18.20;57.60;;;;;;5108441;28;20949;-82
2021/06/13 07:48:11;;;;;;;3.83;3.30;;;18.40;56.70;;;;;;5109104;28;20439;-81
2021/06/13 07:50:41;;;;;;;3.90;3.23;;;18.40;54.90;;;;;;5108606;28;20443;-82
2021/06/13 07:53:08;;;;;;;3.93;2.60;;;18.30;54.80;;;;;;5109696;28;20773;-81
2021/06/13 07:55:37;;;;;;;5.47;3.40;;;18.40;55.10;;;;;;5107906;28;20473;-82
2021/06/13 07:58:07;;;;;;;6.47;3.57;;;18.30;55.50;;;;;;5108602;28;20464;-82
2021/06/13 08:00:34;;;;;;;6.23;3.13;;;18.40;55.80;;;;;;5107336;28;20446;-82
2021/06/13 08:03:01;;;;;;;5.87;3.50;;;18.40;55.70;;;;;;5107274;28;20443;-82
2021/06/13 08:05:29;;;;;;;3.53;2.23;;;18.10;55.90;;;;;;5106536;28;20513;-81
2021/06/13 08:07:59;;;;;;;4.87;3.03;;;18.10;53.90;;;;;;5105744;28;20921;-82
2021/06/13 08:10:27;;;;;;;6.60;2.67;;;18.10;53.80;;;;;;5108328;28;20612;-80
2021/06/13 08:12:58;;;;;;;5.60;2.70;;;18.30;54.30;;;;;;5116073;28;20430;-84
2021/06/13 08:15:27;;;;;;;5.40;3.33;;;18.20;54.10;;;;;;5116794;28;20472;-83
2021/06/13 08:17:55;;;;;;;5.80;3.10;;;18.30;54.10;;;;;;5117172;28;20470;-85
2021/06/13 08:20:22;;;;;;;6.70;2.93;;;18.20;54.10;;;;;;5117529;28;20437;-84
2021/06/13 08:22:49;;;;;;;4.87;2.83;;;18.10;54.30;;;;;;5117152;28;20434;-83
2021/06/13 08:25:21;;;;;;;6.40;3.00;;;18.10;54.10;;;;;;5114991;28;20509;-85
2021/06/13 08:27:53;;;;;;;7.00;2.60;;;18.20;55.10;;;;;;5106856;28;20455;-83
2021/06/13 08:30:20;;;;;;;4.73;3.30;;;18.30;55.40;;;;;;5104539;28;20433;-84
2021/06/13 08:32:49;;;;;;;5.40;2.90;;;18.30;55.50;;;;;;5103775;28;20429;-84
2021/06/13 08:35:22;;;;;;;6.20;3.63;;;18.40;54.50;;;;;;5104197;28;20541;-84
2021/06/13 08:37:51;;;;;;;3.67;3.23;;;18.30;54.40;;;;;;5102619;28;20497;-84
2021/06/13 08:40:22;;;;;;;4.50;3.77;;;18.30;55.00;;;;;;5102357;28;20506;-84
2021/06/13 08:42:50;;;;;;;5.90;3.30;;;18.20;54.70;;;;;;5103150;28;20477;-85
2021/06/13 08:45:18;;;;;;;5.37;2.90;;;18.30;54.90;;;;;;5103491;28;20447;-84
2021/06/13 08:47:51;;;;;;;7.97;3.97;;;18.40;54.70;;;;;;5104848;28;20447;-83
2021/06/13 08:50:19;;;;;;;5.60;2.93;;;18.40;54.80;;;;;;5103582;28;20917;-83
2021/06/13 08:52:49;;;;;;;4.80;2.80;;;18.60;53.40;;;;;;5103978;28;20445;-84
2021/06/13 08:55:17;;;;;;;3.77;3.00;;;18.40;54.10;;;;;;5105200;28;20456;-84
2021/06/13 08:57:45;;;;;;;5.23;3.10;;;18.40;53.70;;;;;;5107100;28;20515;-83
2021/06/13 09:00:23;;;;;;;3.87;2.90;;;18.30;53.10;;;;;;5105686;28;20514;-84
2021/06/13 09:02:51;;;;;;;5.93;3.00;;;18.60;53.60;;;;;;5104923;28;20437;-83
2021/06/13 09:05:24;;;;;;;5.43;3.47;;;18.60;54.40;;;;;;5111755;28;20500;-82
2021/06/13 09:07:53;;;;;;;6.30;3.37;;;18.60;54.40;;;;;;5119347;28;20442;-82
2021/06/13 09:10:24;;;;;;;5.90;4.03;;;18.80;55.10;;;;;;5115557;28;20431;-82
2021/06/13 09:12:55;;;;;;;4.63;2.73;;;18.60;54.60;;;;;;5112500;28;20446;-83
2021/06/13 09:15:37;;;;;;;4.43;3.50;;;18.70;54.60;;;;;;5111403;28;20921;-83
2021/06/13 09:18:08;;;;;;;8.27;3.43;;;18.60;54.50;;;;;;5110765;28;20464;-83
2021/06/13 09:20:37;;;;;;;6.07;3.17;;;18.50;54.50;;;;;;5114448;28;20475;-82
2021/06/13 09:23:12;;;;;;;4.03;2.73;;;18.40;53.90;;;;;;5114654;28;20440;-82
2021/06/13 09:25:41;;;;;;;3.73;3.20;;;18.50;53.30;;;;;;5116716;28;20433;-82
2021/06/13 09:28:11;;;;;;;4.23;3.23;;;18.60;52.40;;;;;;5115374;28;20511;-84
2021/06/13 09:30:42;;;;;;;3.80;2.77;;;18.60;53.30;;;;;;5110901;28;20469;-82
2021/06/13 09:33:17;;;;;;;3.63;3.23;;;18.70;53.70;;;;;;5111747;28;20467;-82
2021/06/13 09:35:46;;;;;;;7.63;3.53;;;19.00;54.90;;;;;;5110068;28;20424;-83
2021/06/13 09:38:16;;;;;;;5.93;3.37;;;19.10;54.50;;;;;;5107289;28;20482;-82
2021/06/13 09:40:54;;;;;;;6.30;3.57;;;19.20;54.80;;;;;;5107812;28;20468;-83
2021/06/13 09:43:25;;;;;;;4.43;3.43;;;19.10;54.60;;;;;;5107230;28;20492;-83
2021/06/13 09:46:11;;;;;;;3.87;3.57;;;19.10;54.50;;;;;;5107333;28;20435;-83
2021/06/13 09:48:43;;;;;;;4.03;3.10;;;19.20;54.80;;;;;;5106722;28;20450;-83
2021/06/13 09:51:13;;;;;;;8.27;3.23;;;19.40;54.90;;;;;;5104980;28;21026;-81
2021/06/13 09:53:45;;;;;;;5.33;2.93;;;19.40;53.90;;;;;;5097468;28;20443;-78
2021/06/13 09:56:19;;;;;;;5.33;2.73;;;19.40;54.20;;;;;;5099192;28;20463;-78
2021/06/13 09:59:03;;;;;;;6.30;2.90;;;19.40;52.30;;;;;;5099900;28;20478;-81
2021/06/13 10:01:38;;;;;;;5.67;3.27;;;19.40;51.80;;;;;;5107256;28;20515;-82
2021/06/13 10:04:09;;;;;;;4.83;3.13;;;19.40;52.90;;;;;;5111326;28;20435;-81
2021/06/13 10:06:40;;;;;;;6.33;3.10;;;19.30;52.30;;;;;;5117926;28;20446;-82
2021/06/13 10:09:10;;;;;;;3.50;2.70;;;19.20;52.50;;;;;;5118177;28;20470;-82
2021/06/13 10:11:39;;;;;;;3.33;2.87;;;19.30;52.00;;;;;;5115508;28;20432;-81
2021/06/13 10:14:08;;;;;;;5.83;3.40;;;19.20;52.30;;;;;;5105810;28;20434;-82
2021/06/13 10:16:39;;;;;;;6.17;3.63;;;19.40;53.30;;;;;;5106470;28;20439;-83
2021/06/13 10:19:14;;;;;;;3.70;3.40;;;19.30;53.90;;;;;;5104471;28;20469;-81
2021/06/13 10:21:43;;;;;;;4.20;3.57;;;19.50;53.90;;;;;;5105889;28;20846;-81
2021/06/13 10:24:13;;;;;;;4.63;2.90;;;19.80;53.60;;;;;;5106355;28;20483;-81
2021/06/13 10:26:44;;;;;;;6.10;4.10;;;19.80;53.30;;;;;;5107348;28;20493;-81
2021/06/13 10:29:13;;;;;;;6.90;3.73;;;19.60;53.50;;;;;;5113731;28;20505;-81
2021/06/13 10:31:40;;;;;;;3.53;3.10;;;19.70;53.00;;;;;;5116192;28;20439;-80
2021/06/13 10:34:09;;;;;;;6.90;3.47;;;19.80;52.60;;;;;;5112645;28;20447;-80
2021/06/13 10:36:41;;;;;;;7.20;3.50;;;19.90;53.50;;;;;;5115180;28;20468;-81
2021/06/13 10:39:11;;;;;;;5.27;2.97;;;19.70;53.50;;;;;;5112658;28;20503;-81
2021/06/13 10:41:38;;;;;;;6.13;2.90;;;19.70;52.60;;;;;;5112666;28;20443;-81
2021/06/13 10:44:07;;;;;;;5.10;3.57;;;19.90;52.70;;;;;;5110556;28;20494;-80
2021/06/13 10:46:37;;;;;;;3.60;2.80;;;20.10;53.00;;;;;;5107332;28;20454;-81
2021/06/13 10:49:05;;;;;;;7.63;3.43;;;20.30;53.00;;;;;;5109053;28;20520;-81
2021/06/13 10:51:41;;;;;;;6.03;3.13;;;20.30;52.50;;;;;;5106967;28;20436;-81
2021/06/13 10:54:36;;;;;;;5.23;3.47;;;20.30;52.60;;;;;;5104788;28;20443;-82
2021/06/13 10:57:36;;;;;;;3.63;2.70;;;20.30;53.40;;;;;;5107145;28;20477;-80
2021/06/13 11:00:30;;;;;;;4.07;3.13;;;20.20;52.30;;;;;;5106338;28;20468;-80
2021/06/13 11:03:01;;;;;;;3.87;2.90;;;20.40;52.40;;;;;;5107974;28;20432;-80
2021/06/13 11:05:44;;;;;;;4.60;2.90;;;20.50;51.70;;;;;;5107660;28;20439;-81
2021/06/13 11:08:13;;;;;;;3.00;2.20;;;20.60;51.40;;;;;;5105038;28;20440;-76
2021/06/13 11:10:41;;;;;;;4.40;2.40;;;20.60;51.00;;;;;;5095878;28;20432;-75
2021/06/13 11:13:10;;;;;;;5.07;2.80;;;20.70;51.00;;;;;;5095677;28;20945;-75
2021/06/13 11:15:49;;;;;;;4.60;2.60;;;20.50;50.60;;;;;;5095743;28;20481;-75
2021/06/13 11:18:21;;;;;;;4.17;2.90;;;20.50;51.30;;;;;;5095326;28;20947;-75
2021/06/13 11:20:51;;;;;;;5.23;3.10;;;20.40;50.90;;;;;;5094578;28;20470;-76
2021/06/13 11:23:44;;;;;;;3.37;2.87;;;20.40;51.60;;;;;;5094067;28;20859;-76
2021/06/13 11:26:38;;;;;;;4.47;2.80;;;20.40;52.40;;;;;;5095023;28;20438;-77
2021/06/13 11:29:11;;;;;;;2.93;2.40;;;20.70;52.00;;;;;;5094266;28;20431;-76
2021/06/13 11:31:51;;;;;;;4.37;2.87;;;20.70;51.80;;;;;;5095170;28;20440;-76
2021/06/13 11:34:18;;;;;;;4.43;2.33;;;20.60;51.30;;;;;;5095268;28;20527;-78
2021/06/13 11:36:46;;;;;;;7.10;3.33;;;20.70;50.70;;;;;;5095403;28;20936;-77
2021/06/13 11:39:28;;;;;;;2.50;2.30;;;20.90;51.20;;;;;;5095839;28;20479;-77
2021/06/13 11:42:11;;;;;;;3.10;2.73;;;21.00;50.70;;;;;;5097679;28;20446;-78
2021/06/13 11:44:42;;;;;;;3.73;2.57;;;20.90;50.10;;;;;;5111447;28;20582;-78
2021/06/13 11:47:43;;;;;;;4.13;3.83;;;20.90;50.30;;;;;;5101155;28;20444;-76
2021/06/13 11:50:12;;;;;;;5.73;3.53;;;21.00;50.60;;;;;;5067242;28;20448;-78
2021/06/13 11:52:55;;;;;;;4.43;2.63;;;20.90;50.80;;;;;;5071689;28;20450;-81
2021/06/13 11:56:00;;;;;;;4.80;2.73;;;21.10;52.20;;;;;;5091777;28;20623;-81
2021/06/13 11:58:27;;;;;;;3.70;3.27;;;21.20;51.70;;;;;;5113467;28;20477;-81
2021/06/13 12:00:56;;;;;;;4.37;2.90;;;21.30;51.70;;;;;;5108469;28;20464;-80
2021/06/13 12:03:23;;;;;;;2.83;2.40;;;21.30;51.40;;;;;;5118591;28;20472;-84
2021/06/13 12:06:03;;;;;;;2.80;2.60;;;21.20;51.00;;;;;;5110239;28;20787;-79
2021/06/13 12:08:30;;;;;;;3.33;2.60;;;21.10;51.20;;;;;;5110679;28;20827;-80
2021/06/13 12:10:58;;;;;;;3.23;2.73;;;21.30;51.50;;;;;;5113447;28;20512;-81
2021/06/13 12:13:29;;;;;;;3.37;2.50;;;21.50;51.60;;;;;;5112323;28;20455;-83
2021/06/13 12:15:56;;;;;;;5.13;3.30;;;21.30;51.10;;;;;;5108599;28;20458;-79
2021/06/13 12:18:23;;;;;;;4.83;3.10;;;21.30;51.30;;;;;;5112136;28;20449;-84
2021/06/13 12:20:59;;;;;;;3.90;2.30;;;21.40;51.70;;;;;;5110005;28;20508;-79
2021/06/13 12:23:34;;;;;;;5.30;2.63;;;21.50;51.00;;;;;;5109656;28;20514;-79
2021/06/13 12:28:47;;;;;;;4.33;2.73;;;21.60;50.20;;;;;;5106894;28;20659;-82
2021/06/13 12:31:17;;;;;;;7.83;2.57;;;21.60;50.20;;;;;;5100380;28;20517;-81
2021/06/13 12:33:45;;;;;;;2.77;2.50;;;21.50;49.60;;;;;;5101703;28;20477;-79
2021/06/13 12:36:12;;;;;;;4.43;2.53;;;21.40;48.60;;;;;;5100202;28;21063;-79
2021/06/13 12:38:39;;;;;;;3.67;2.70;;;21.50;50.00;;;;;;5093435;28;20475;-82
2021/06/13 12:41:07;;;;;;;5.97;2.70;;;21.60;50.20;;;;;;5103079;28;20490;-80
2021/06/13 12:43:37;;;;;;;2.67;2.47;;;21.40;50.20;;;;;;5098801;28;20432;-81
2021/06/13 12:46:06;;;;;;;3.43;2.70;;;21.50;50.90;;;;;;5106689;28;20453;-78
2021/06/13 12:48:33;;;;;;;5.47;2.53;;;21.70;50.20;;;;;;5103002;28;20501;-80
2021/06/13 12:51:01;;;;;;;3.40;2.53;;;21.80;50.10;;;;;;5109477;28;20455;-79
2021/06/13 12:53:35;;;;;;;3.40;2.70;;;21.90;49.80;;;;;;5102504;28;20461;-79
2021/06/13 12:56:04;;;;;;;4.70;2.57;;;21.80;48.70;;;;;;5108257;28;20453;-79
2021/06/13 12:58:34;;;;;;;3.87;2.37;;;21.70;49.90;;;;;;5110088;28;20547;-80
2021/06/13 13:01:03;;;;;;;3.20;2.60;;;21.70;50.00;;;;;;5108339;27;20461;-79
2021/06/13 13:03:40;;;;;;;3.83;2.70;;;21.80;49.70;;;;;;5108169;27;20822;-79